createdAt,value
2022-09-15T00:04:59.266Z,73.15
2022-09-15T00:10:03.884Z,73.35
2022-09-15T00:15:08.337Z,73.53
2022-09-15T00:20:11.739Z,73.57
2022-09-15T00:25:16.056Z,73.60
2022-09-15T00:30:19.512Z,73.64
2022-09-15T00:35:22.801Z,73.75
2022-09-15T00:40:27.790Z,73.92
2022-09-15T00:45:31.239Z,74.03
2022-09-15T00:50:38.090Z,74.16
2022-09-15T00:55:48.918Z,74.28
2022-09-15T01:01:04.206Z,74.38
2022-09-15T01:06:21.306Z,74.38
2022-09-15T01:11:25.045Z,74.31
2022-09-15T01:17:16.474Z,74.38
2022-09-15T01:23:10.840Z,74.57
2022-09-15T01:28:36.194Z,74.69
2022-09-15T01:33:50.034Z,74.78
2022-09-15T01:39:17.282Z,74.93
2022-09-15T01:44:28.788Z,74.90
2022-09-15T01:49:59.956Z,74.81
2022-09-15T01:55:14.754Z,74.79
2022-09-15T02:00:18.917Z,74.86
2022-09-15T02:05:40.236Z,74.99
2022-09-15T02:11:17.013Z,75.19
2022-09-15T02:16:29.687Z,75.28
2022-09-15T02:22:16.888Z,75.27
2022-09-15T02:27:25.374Z,75.31
2022-09-15T02:32:31.053Z,75.33
2022-09-15T02:37:37.593Z,75.35
2022-09-15T02:42:42.762Z,75.44
2022-09-15T02:47:46.568Z,75.54
2022-09-15T02:52:49.888Z,75.62
2022-09-15T02:57:53.283Z,75.75
2022-09-15T03:02:57.262Z,75.79
2022-09-15T03:08:00.818Z,75.84
2022-09-15T03:13:04.232Z,75.81
2022-09-15T03:18:07.670Z,75.82
2022-09-15T03:23:11.262Z,75.89
2022-09-15T03:28:14.778Z,75.96
2022-09-15T03:33:18.090Z,76.11
2022-09-15T03:38:22.472Z,76.21
2022-09-15T03:43:27.249Z,76.18
2022-09-15T03:48:35.712Z,76.15
2022-09-15T03:53:42.026Z,76.17
2022-09-15T03:58:45.675Z,76.19
2022-09-15T04:03:51.364Z,76.35
2022-09-15T04:08:56.281Z,76.57
2022-09-15T04:14:00.028Z,76.82
2022-09-15T04:19:04.073Z,76.92
2022-09-15T04:24:07.487Z,77.11
2022-09-15T04:29:17.816Z,77.08
2022-09-15T04:34:21.281Z,77.17
2022-09-15T04:39:25.745Z,77.27
2022-09-15T04:44:29.441Z,77.46
2022-09-15T04:49:32.851Z,77.68
2022-09-15T04:54:36.266Z,77.61
2022-09-15T04:59:39.892Z,77.48
2022-09-15T05:04:44.424Z,77.38
2022-09-15T05:09:47.845Z,77.33
2022-09-15T05:14:51.252Z,77.35
2022-09-15T05:19:54.765Z,77.38
2022-09-15T05:24:58.131Z,77.39
2022-09-15T05:30:25.208Z,77.26
2022-09-15T05:35:24.981Z,77.06
2022-09-15T05:40:28.320Z,76.99
2022-09-15T05:45:31.907Z,77.07
2022-09-15T05:50:35.453Z,77.18
2022-09-15T05:55:39.559Z,77.19
2022-09-15T06:00:43.488Z,77.14
2022-09-15T06:05:48.236Z,77.21
2022-09-15T06:10:51.535Z,77.18
2022-09-15T06:15:55.077Z,77.00
2022-09-15T06:21:03.377Z,76.33
2022-09-15T06:26:18.987Z,75.85
2022-09-15T06:31:24.054Z,75.77
2022-09-15T06:36:31.238Z,75.23
2022-09-15T06:41:58.773Z,74.85
2022-09-15T06:46:59.345Z,74.15
2022-09-15T06:52:03.246Z,73.75
2022-09-15T06:57:07.460Z,73.72
2022-09-15T07:02:10.944Z,73.23
2022-09-15T07:07:14.860Z,73.02
2022-09-15T07:12:18.422Z,73.22
2022-09-15T07:17:21.900Z,73.04
2022-09-15T07:22:25.310Z,73.13
2022-09-15T07:27:31.881Z,72.83
2022-09-15T07:32:35.416Z,72.52
2022-09-15T07:37:39.132Z,71.79
2022-09-15T07:42:44.510Z,71.90
2022-09-15T07:47:47.854Z,71.64
2022-09-15T07:52:51.230Z,71.00
2022-09-15T07:58:01.491Z,70.44
2022-09-15T08:03:04.904Z,69.92
2022-09-15T08:08:08.737Z,69.71
2022-09-15T08:13:12.119Z,68.90
2022-09-15T08:18:16.124Z,68.54
2022-09-15T08:23:19.437Z,67.50
2022-09-15T08:28:22.796Z,66.97
2022-09-15T08:33:26.418Z,66.59
2022-09-15T08:38:30.029Z,66.37
2022-09-15T08:43:46.270Z,65.65
2022-09-15T08:49:35.509Z,64.84
2022-09-15T08:54:42.428Z,64.97
2022-09-15T08:59:45.987Z,64.82
2022-09-15T09:05:06.970Z,64.03
2022-09-15T09:10:45.816Z,62.48
2022-09-15T09:16:01.587Z,62.10
2022-09-15T09:21:23.977Z,60.96
2022-09-15T09:26:32.323Z,61.06
2022-09-15T09:31:37.157Z,60.76
2022-09-15T09:36:40.775Z,60.29
2022-09-15T09:41:45.155Z,59.94
2022-09-15T09:46:52.181Z,60.19
2022-09-15T09:52:00.178Z,59.81
2022-09-15T09:57:32.833Z,59.72
2022-09-15T10:02:47.871Z,59.87
2022-09-15T10:07:51.438Z,60.31
2022-09-15T10:13:02.424Z,60.67
2022-09-15T10:18:06.055Z,60.43
2022-09-15T10:23:31.741Z,60.49
2022-09-15T10:28:35.502Z,61.19
2022-09-15T10:33:42.858Z,61.34
2022-09-15T10:39:02.809Z,61.74
2022-09-15T10:44:39.605Z,62.28
2022-09-15T10:49:53.467Z,62.60
2022-09-15T10:55:08.756Z,62.44
2022-09-15T11:00:24.962Z,62.29
2022-09-15T11:06:19.172Z,62.06
2022-09-15T11:12:01.500Z,61.73
2022-09-15T11:17:31.438Z,61.62
2022-09-15T11:22:49.581Z,61.65
2022-09-15T11:28:14.615Z,61.91
2022-09-15T11:33:26.634Z,61.61
2022-09-15T11:38:39.394Z,61.60
2022-09-15T11:44:34.386Z,61.25
2022-09-15T11:49:50.087Z,61.17
2022-09-15T11:55:12.445Z,60.88
2022-09-15T12:00:17.169Z,60.67
2022-09-15T12:05:33.353Z,59.22
2022-09-15T12:10:49.345Z,59.67
2022-09-15T12:15:53.720Z,59.00
2022-09-15T12:21:30.545Z,58.71
2022-09-15T12:26:34.905Z,59.03
2022-09-15T12:31:40.482Z,58.10
2022-09-15T12:36:53.821Z,57.64
2022-09-15T12:42:12.464Z,56.67
2022-09-15T12:47:42.624Z,55.76
2022-09-15T12:53:12.960Z,56.46
2022-09-15T12:59:03.261Z,54.92
2022-09-15T13:04:24.295Z,53.81
2022-09-15T13:09:28.728Z,53.74
2022-09-15T13:14:45.351Z,52.60
2022-09-15T13:19:54.715Z,52.46
2022-09-15T13:25:13.989Z,52.31
2022-09-15T13:30:44.791Z,51.87
2022-09-15T13:38:03.345Z,52.06
2022-09-15T13:42:20.797Z,52.19
2022-09-15T13:48:13.969Z,51.69
2022-09-15T13:54:12.805Z,51.99
2022-09-15T13:59:24.677Z,52.41
2022-09-15T14:04:31.877Z,52.56
2022-09-15T14:09:46.860Z,52.78
2022-09-15T14:14:54.358Z,52.47
2022-09-15T14:20:01.263Z,52.31
2022-09-15T14:25:17.068Z,55.58
2022-09-15T14:30:32.313Z,57.31
2022-09-15T14:35:38.923Z,58.74
2022-09-15T14:40:42.427Z,59.61
2022-09-15T14:45:57.437Z,59.76
2022-09-15T14:51:13.770Z,60.43
2022-09-15T14:56:24.709Z,61.13
2022-09-15T15:02:20.391Z,61.02
2022-09-15T15:07:32.306Z,60.76
2022-09-15T15:12:44.437Z,60.47
2022-09-15T15:17:51.945Z,60.56
2022-09-15T15:23:25.149Z,60.58
2022-09-15T15:28:38.049Z,60.78
2022-09-15T15:34:05.668Z,60.47
2022-09-15T15:39:25.326Z,59.76
2022-09-15T15:44:31.335Z,59.44
2022-09-15T15:49:42.335Z,58.95
2022-09-15T15:54:54.346Z,58.80
2022-09-15T16:00:00.869Z,58.83
2022-09-15T16:05:05.435Z,58.59
2022-09-15T16:10:16.466Z,58.74
2022-09-15T16:15:21.840Z,58.94
2022-09-15T16:20:25.336Z,59.15
2022-09-15T16:25:56.625Z,58.95
2022-09-15T16:31:00.209Z,58.61
2022-09-15T16:36:07.168Z,58.03
2022-09-15T16:41:17.817Z,57.64
2022-09-15T16:46:22.047Z,57.74
2022-09-15T16:51:30.860Z,57.80
2022-09-15T16:56:35.318Z,58.01
2022-09-15T17:01:40.003Z,58.44
2022-09-15T17:06:44.089Z,58.74
2022-09-15T17:11:48.119Z,58.87
2022-09-15T17:16:53.143Z,58.99
2022-09-15T17:21:56.481Z,58.88
2022-09-15T17:26:59.793Z,58.56
2022-09-15T17:32:03.107Z,58.78
2022-09-15T17:37:06.412Z,59.28
2022-09-15T17:42:10.150Z,59.61
2022-09-15T17:47:13.444Z,59.38
2022-09-15T17:52:17.065Z,59.62
2022-09-15T17:57:20.350Z,59.97
2022-09-15T18:02:23.759Z,60.47
2022-09-15T18:07:27.210Z,60.92
2022-09-15T18:12:30.510Z,61.36
2022-09-15T18:17:33.965Z,61.65
2022-09-15T18:22:37.246Z,62.18
2022-09-15T18:27:40.758Z,62.59
2022-09-15T18:32:44.872Z,62.83
2022-09-15T18:37:54.036Z,63.29
2022-09-15T18:42:57.655Z,63.48
2022-09-15T18:48:01.578Z,63.74
2022-09-15T18:53:06.204Z,63.85
2022-09-15T18:58:11.106Z,64.07
2022-09-15T19:03:14.892Z,64.32
2022-09-15T19:08:18.417Z,64.54
2022-09-15T19:13:21.724Z,64.86
2022-09-15T19:18:25.135Z,65.03
2022-09-15T19:23:28.445Z,65.33
2022-09-15T19:28:32.509Z,65.76
2022-09-15T19:33:36.091Z,66.15
2022-09-15T19:38:39.435Z,66.61
2022-09-15T19:43:43.270Z,66.77
2022-09-15T19:48:47.968Z,67.05
2022-09-15T19:53:56.117Z,67.07
2022-09-15T19:58:59.919Z,67.28
2022-09-15T20:09:24.592Z,68.11
2022-09-15T20:14:27.876Z,68.35
2022-09-15T20:19:31.250Z,68.44
2022-09-15T20:24:34.553Z,68.67
2022-09-15T20:29:39.001Z,69.16
2022-09-15T20:34:42.305Z,69.36
2022-09-15T20:39:48.793Z,69.48
2022-09-15T20:44:52.151Z,69.91
2022-09-15T20:49:55.766Z,70.14
2022-09-15T20:54:59.078Z,70.36
2022-09-15T21:00:05.163Z,70.45
2022-09-15T21:05:09.612Z,70.56
2022-09-15T21:10:12.865Z,70.68
2022-09-15T21:15:16.644Z,71.04
2022-09-15T21:20:19.876Z,71.20
2022-09-15T21:25:24.270Z,71.35
2022-09-15T21:30:27.589Z,71.68
2022-09-15T21:35:32.609Z,71.58
2022-09-15T21:40:37.079Z,71.47
2022-09-15T21:45:40.408Z,71.56
2022-09-15T21:50:54.255Z,71.81
2022-09-15T21:56:05.815Z,72.01
2022-09-15T22:01:13.532Z,72.02
2022-09-15T22:06:17.182Z,72.03
2022-09-15T22:11:21.311Z,72.08
2022-09-15T22:16:26.404Z,72.33
2022-09-15T22:21:32.814Z,72.55
2022-09-15T22:26:38.723Z,72.51
2022-09-15T22:31:42.425Z,72.41
2022-09-15T22:36:46.061Z,72.28
2022-09-15T22:41:49.715Z,72.31
2022-09-15T22:46:53.051Z,72.31
2022-09-15T22:51:56.298Z,72.51
2022-09-15T22:56:59.697Z,73.14
2022-09-15T23:02:03.029Z,73.89
2022-09-15T23:07:06.645Z,74.04
2022-09-15T23:12:10.160Z,74.04
2022-09-15T23:17:13.473Z,74.43
2022-09-15T23:22:16.785Z,74.43
2022-09-15T23:27:20.711Z,74.57
2022-09-15T23:32:24.143Z,74.90
2022-09-15T23:37:27.541Z,75.64
2022-09-15T23:42:30.855Z,75.82
2022-09-15T23:47:35.394Z,76.15
2022-09-15T23:52:38.702Z,76.07
2022-09-15T23:57:41.953Z,76.07
